Aviation Digital Data Service (ADDS)

Output produced by METARs form (0429 UTC 26 May 2018)
found at http://www.aviationweather.gov/adds/metars/
 
KPAE 252325Z 2600/2624 33007KT P6SM SCT040 BKN050 BKN200 
     FM260200 35008KT P6SM SKC 
     FM260700 01005KT P6SM SCT020 
     FM261000 17003KT P6SM SCT010 OVC018 
     FM261700 20005KT P6SM SCT015 BKN025 
     FM261900 25004KT P6SM SCT025 BKN035 
     FM262100 30005KT P6SM SCT030 SCT045
       
TAF KPAM 251000Z 2510/2616 VRB06KT 9999 FEW050 BKN150 QNH2995INS 
     BECMG 2518/2519 16006KT 9000 -SHRA SCT025 BKN035 QNH2993INS 
     TEMPO 2520/2524 18012G18KT 6000 -TSRA BKN015CB 
     BECMG 2600/2601 22006KT 9999 NSW FEW020 BKN030 QNH2986INS 
     BECMG 2608/2609 VRB06KT 9999 BKN018 OVC030 QNH2983INS 
     BECMG 2612/2613 06006KT 9999 SCT010 BKN050 QNH2985INS TX29/2518Z TN20/2512Z LAST NO AMDS AFT 2510 NEXT 2610
       
KPBF 252320Z 2600/2624 13004KT P6SM VCTS SCT100CB 
     TEMPO 2609/2613 4SM BR 
     FM261500 25003KT P6SM BKN250
       
KPBG 252327Z 2600/2624 23008KT 6SM -SHRA SCT050 OVC070 
     TEMPO 2600/2603 27015G25KT SHRA OVC050 
     FM260300 20005KT P6SM VCSH OVC070 
     FM261400 02005KT P6SM VCSH OVC040 
     FM261600 04006KT P6SM VCSH OVC025 
     FM262000 03007KT 6SM -SHRA OVC020
       
KPBI 260305Z 2603/2624 12008KT P6SM VCSH FEW015 SCT025 BKN100 
     FM261300 12012KT 6SM SHRA SCT025 OVC035 
     FM261600 13015KT 6SM SHRA VCTS FEW007 SCT015 BKN025CB
       
KPDK 260244Z 2603/2624 14004KT P6SM VCSH FEW015 BKN050 
     TEMPO 2605/2608 3SM TSRA BR BKN015CB 
     FM260800 00000KT P6SM VCSH OVC015 
     FM261000 00000KT 5SM BR OVC015 
     FM261500 18004KT P6SM VCSH BKN025 
     FM261800 18004KT P6SM BKN035 
     PROB30 2618/2624 VRB10G20KT 3SM TSRA BR BKN025CB
       
KPDT 260038Z 2601/2624 30012KT P6SM SCT080 
     FM260300 26015G25KT P6SM -SHRA BKN050 OVC080 
     FM260900 26014G20KT P6SM OVC080 
     FM261600 25014G20KT P6SM OVC100 
     FM262100 27014KT P6SM FEW070 BKN250
       
KPDX 260342Z 2604/2624 32015G22KT P6SM SCT040 SCT060 
     FM260500 32009KT P6SM SCT025 BKN150 
     FM261100 29004KT P6SM -DZ SCT015 OVC022 
     FM261900 28006KT P6SM SCT035 BKN300
       
KPGA 252327Z 2600/2624 22009G19KT P6SM SKC 
     FM260200 21008KT P6SM SKC 
     FM261500 16005G15KT P6SM SKC 
     FM262000 20016G26KT P6SM SKC
       
KPGD 252320Z 2600/2624 13007KT 6SM -RA SCT035 BKN080 
     FM260300 10007KT P6SM SCT025 OVC080 
     FM261100 10010G15KT P6SM VCSH SCT015 BKN025 OVC050 
     FM261400 12012G18KT 5SM -RA VCTS FEW005 SCT015CB OVC025
       
KPGV 252323Z 2600/2624 20005KT P6SM SCT050 
     FM260900 21003KT 4SM BR BKN007 
     FM261300 21006KT P6SM BKN020 
     FM261500 21010G17KT P6SM BKN040 AMD LTD TO CLD VIS AND WIND
       
KPHF 252320Z 2600/2624 21008KT P6SM SKC 
     FM261400 22010G16KT P6SM SCT030 SCT200 
     FM261800 22011G18KT P6SM BKN040
       
KPHL 252322Z 2600/2706 22012KT P6SM SKC 
     FM260200 22006KT P6SM SKC 
     FM261500 24008KT P6SM SCT050 
     PROB30 2620/2624 TSRA OVC035CB 
     FM270000 22004KT P6SM -SHRA SCT035 OVC080
       
KPHX 260249Z 2603/2706 28012KT P6SM SCT250 
     FM261100 11004KT P6SM SCT250 
     FM261500 26005KT P6SM SCT250 
     FM262100 24012KT P6SM SCT250
       
KPIA 252327Z 2600/2624 VRB06KT P6SM VCSH SCT040 BKN120 
     FM260600 VRB04KT P6SM BKN250 
     FM261500 24006KT P6SM FEW250
       
KPIE 252320Z 2600/2624 13007KT P6SM SCT030 SCT050 BKN100 
     FM261400 13012G20KT 6SM -RA VCTS SCT025CB BKN035 
     FM261800 13014G24KT 5SM -RA VCTS FEW006 SCT015CB BKN025
       
KPIH 252329Z 2600/2624 18011KT P6SM FEW110 
     FM260300 20010KT P6SM FEW120 
     FM261800 24010KT P6SM SCT100
       
KPIR 252325Z 2600/2624 32010KT P6SM SKC 
     FM260200 VRB05KT P6SM SKC 
     FM261700 14010KT P6SM SKC
       
KPIT 260255Z 2603/2706 23004KT P6SM SKC 
     FM262000 22005KT P6SM VCTS BKN040CB 
     FM270200 VRB02KT P6SM BKN070
       
KPKB 260246Z 2603/2624 21003KT P6SM SCT040 
     FM261000 00000KT 5SM BR SCT035 
     FM261200 00000KT P6SM SCT035 
     FM261400 00000KT P6SM BKN035 
     FM261900 19003KT P6SM SHRA VCTS OVC070CB 
     FM262100 19003KT 5SM SHRA VCTS OVC035CB 
     FM262200 19003KT 6SM SHRA VCTS OVC070CB
       
KPMD 260304Z 2603/2624 24015G20KT P6SM SKC 
     FM260600 25014KT P6SM SKC 
     FM261500 26017G23KT P6SM FEW250 
     FM261900 25020G28KT P6SM SCT250
       
KPNA 252327Z 2600/2624 13006KT P6SM SCT100 
     FM260200 VRB04KT P6SM SKC 
     FM261900 16012KT P6SM SCT200 AMD LTD TO CLD VIS AND WIND
       
KPNE 252322Z 2600/2624 22010KT P6SM SKC 
     FM260200 23004KT P6SM SKC 
     FM261500 25006KT P6SM SCT050 
     PROB30 2621/2624 TSRA OVC035CB
       
KPNS 252320Z 2600/2624 16009KT P6SM VCSH FEW025 BKN060 
     TEMPO 2600/2601 4SM TSRA BKN025CB 
     FM260300 VRB03KT P6SM FEW100 BKN200 
     FM261500 15004KT P6SM VCSH SCT030 SCT200 
     PROB30 2618/2624 VRB15G25KT 4SM TSRA BKN025CB
       
TAF KPOB 260100Z 2601/2707 18006KT 9999 BKN025 QNH2997INS 
     BECMG 2607/2608 20006KT 6000 BR BKN008 QNH2996INS 
     BECMG 2613/2614 18009KT 9999 NSW SCT025 QNH2986INS 
     TEMPO 2619/2623 21010G15KT 4800 -SHRA BKN025 
     BECMG 2702/2703 18006KT 9999 BKN010 QNH2995INS TX29/2619Z TN21/2608Z
       
KPOU 252334Z 2600/2624 22005KT P6SM SCT250 
     FM260500 VRB03KT P6SM SKC 
     FM261500 25007KT P6SM BKN250 
     FM262100 28006KT P6SM SCT100 OVC250
       
KPQI 252321Z 2600/2624 26004KT P6SM VCSH BKN045 
     FM260400 VRB02KT P6SM BKN070 
     FM260800 VRB03KT P6SM SCT070 
     FM261800 34012G22KT P6SM SCT070 
     FM262100 35010KT P6SM FEW070 
     FM262230 36006KT P6SM SKC
       
KPRB 260303Z 2603/2624 21010KT P6SM SCT040 
     FM260500 30010KT P6SM FEW040 
     FM261000 30006KT P6SM SCT012 SCT040 
     FM261300 VRB03KT 6SM BR BKN007 BKN040 
     FM261800 33006KT P6SM FEW012 SCT040
       
KPRC 252327Z 2600/2624 20012G20KT P6SM SKC 
     FM260200 20008KT P6SM SKC 
     FM261600 18010G20KT P6SM SKC 
     FM261800 19014G26KT P6SM FEW250
       
KPSC 260344Z 2604/2624 29011KT P6SM BKN120 OVC250 
     FM261500 22010KT P6SM SCT250
       
KPSF 252334Z 2600/2624 26006KT P6SM SCT100 BKN250 
     FM260500 27004KT P6SM SCT250 
     FM261500 27008KT P6SM BKN250 
     FM262100 30007KT P6SM SCT100 OVC250
       
KPSM 252339Z 2600/2624 25007KT P6SM BKN090 BKN250 
     FM261400 28007KT P6SM SCT080 BKN120 
     FM262100 07008KT P6SM OVC060
       
KPSP 252340Z 2600/2624 32015G25KT P6SM SKC 
     FM260800 32010KT P6SM SKC 
     FM261200 29006KT P6SM SKC 
     FM261700 32015G25KT P6SM SKC 
     FM262300 32020G30KT P6SM SKC
       
KPUB 260420Z 2604/2624 10013KT P6SM SKC 
     FM260900 VRB05KT P6SM SKC 
     FM261700 17005KT P6SM SKC 
     FM262000 15014G24KT P6SM FEW250
       
KPUW 252329Z 2600/2624 32007KT P6SM SCT100 SCT200 
     FM260200 29006KT P6SM BKN100 OVC200 
     FM260300 25007KT P6SM -SHRA VCTS BKN100CB OVC150 
     FM261000 25004KT P6SM -SHRA OVC080 
     FM262100 26009KT P6SM SCT080 BKN120 OVC200
       
KPVD 252329Z 2600/2624 22013G22KT P6SM FEW200 SCT250 
     FM260100 23010KT P6SM SCT250 
     FM261800 21009KT P6SM SCT060 
     FM262200 18007KT P6SM VCSH BKN060 
     FM262300 14006KT P6SM VCSH BKN050
       
KPVU 252327Z 2600/2624 22010KT P6SM FEW100 
     FM260300 15007KT P6SM SKC 
     FM261800 23012KT P6SM SCT120
       
KPWM 252339Z 2600/2624 25007KT P6SM BKN080 BKN200 
     FM261400 33007KT P6SM SCT060 BKN090 BKN120 
     FM262000 06008KT P6SM OVC060
       
KPWT 260302Z 2603/2624 05004KT P6SM OVC035 
     FM260500 16005KT P6SM SCT020 OVC030 
     FM260900 18003KT 4SM -DZ BR SCT009 BKN014 OVC020 
     FM261400 19005KT P6SM SCT005 BKN010 OVC015 
     FM261700 20006KT P6SM SCT012 BKN018 
     FM262000 20007KT P6SM SCT020 BKN030 
     FM262200 20005KT P6SM SCT030 BKN045